createdAt,value
2023-03-28T00:03:36.085Z,98994.88
2023-03-28T00:08:58.828Z,98998.06
2023-03-28T00:14:20.951Z,99001.53
2023-03-28T00:19:43.032Z,99011.91
2023-03-28T00:25:07.431Z,99010.31
2023-03-28T00:30:29.212Z,99024.41
2023-03-28T00:35:51.518Z,99030.28
2023-03-28T00:41:16.444Z,99023.91
2023-03-28T00:46:42.633Z,99039.88
2023-03-28T00:52:05.578Z,99052.94
2023-03-28T00:57:29.653Z,99047.34
2023-03-28T01:02:55.279Z,99062.78
2023-03-28T01:08:26.314Z,99062.25
2023-03-28T01:13:52.479Z,99059.84
2023-03-28T01:20:19.036Z,99064.63
2023-03-28T01:25:53.423Z,99069.66
2023-03-28T01:31:38.438Z,99073.38
2023-03-28T01:37:44.361Z,99085.38
2023-03-28T01:43:33.669Z,99093.38
2023-03-28T01:49:22.826Z,99114.16
2023-03-28T01:55:05.804Z,99109.94
2023-03-28T02:00:32.885Z,99121.13
2023-03-28T02:06:01.801Z,99119.78
2023-03-28T02:11:27.061Z,99141.63
2023-03-28T02:17:09.979Z,99135.22
2023-03-28T02:23:02.298Z,99159.47
2023-03-28T02:28:45.895Z,99171.19
2023-03-28T02:34:25.183Z,99171.72
2023-03-28T02:39:50.967Z,99190.34
2023-03-28T02:45:34.422Z,99180.75
2023-03-28T02:51:30.719Z,99202.34
2023-03-28T02:57:05.585Z,99205.53
2023-03-28T03:02:42.787Z,99201.00
2023-03-28T03:08:05.526Z,99203.69
2023-03-28T03:13:30.267Z,99224.19
2023-03-28T03:18:57.956Z,99221.50
2023-03-28T03:24:20.613Z,99220.69
2023-03-28T03:29:43.017Z,99241.53
2023-03-28T03:35:10.456Z,99248.47
2023-03-28T03:40:32.847Z,99260.72
2023-03-28T03:45:55.077Z,99266.59
2023-03-28T03:51:17.174Z,99271.94
2023-03-28T03:56:39.314Z,99280.47
2023-03-28T04:02:01.919Z,99272.47
2023-03-28T04:07:42.844Z,99273.53
2023-03-28T04:13:14.161Z,99282.63
2023-03-28T04:18:37.977Z,99290.09
2023-03-28T04:24:02.463Z,99292.53
2023-03-28T04:29:33.448Z,99294.94
2023-03-28T04:35:16.957Z,99303.97
2023-03-28T04:40:45.196Z,99312.53
2023-03-28T04:46:17.914Z,99323.22
2023-03-28T04:51:40.350Z,99330.16
2023-03-28T04:57:03.104Z,99333.38
2023-03-28T05:02:33.652Z,99346.69
2023-03-28T05:07:58.826Z,99348.84
2023-03-28T05:13:21.088Z,99353.09
2023-03-28T05:18:56.613Z,99374.19
2023-03-28T05:24:43.421Z,99369.38
2023-03-28T05:30:14.229Z,99378.72
2023-03-28T05:35:37.921Z,99388.34
2023-03-28T05:41:00.426Z,99381.94
2023-03-28T05:46:22.862Z,99385.41
2023-03-28T05:51:44.715Z,99404.88
2023-03-28T05:57:06.857Z,99409.69
2023-03-28T06:02:29.949Z,99422.00
2023-03-28T06:07:52.188Z,99428.66
2023-03-28T06:13:15.844Z,99427.56
2023-03-28T06:18:41.067Z,99442.81
2023-03-28T06:24:03.164Z,99454.56
2023-03-28T06:29:29.783Z,99445.19
2023-03-28T06:34:57.311Z,99464.16
2023-03-28T06:40:19.412Z,99450.81
2023-03-28T06:45:41.847Z,99469.22
2023-03-28T06:51:08.428Z,99487.41
2023-03-28T06:56:31.576Z,99485.53
2023-03-28T07:01:54.716Z,99496.72
2023-03-28T07:07:22.930Z,99497.75
2023-03-28T07:12:52.202Z,99484.94
2023-03-28T07:18:14.810Z,99498.75
2023-03-28T07:23:39.982Z,99503.03
2023-03-28T07:29:03.539Z,99511.56
2023-03-28T07:34:25.738Z,99513.69
2023-03-28T07:39:48.443Z,99516.56
2023-03-28T07:45:15.521Z,99497.63
2023-03-28T07:50:37.508Z,99528.84
2023-03-28T07:56:00.430Z,99531.81
2023-03-28T08:01:38.153Z,99535.88
2023-03-28T08:07:01.000Z,99528.16
2023-03-28T08:12:23.225Z,99543.06
2023-03-28T08:17:45.972Z,99544.16
2023-03-28T08:23:10.760Z,99559.72
2023-03-28T08:28:34.928Z,99575.78
2023-03-28T08:33:58.100Z,99562.13
2023-03-28T08:39:27.116Z,99567.91
2023-03-28T08:45:05.910Z,99599.16
2023-03-28T08:50:42.080Z,99598.34
2023-03-28T08:56:07.267Z,99609.38
2023-03-28T09:01:33.314Z,99609.38
2023-03-28T09:07:07.962Z,99614.44
2023-03-28T09:12:53.312Z,99635.75
2023-03-28T09:18:39.451Z,99644.34
2023-03-28T09:24:13.566Z,99645.97
2023-03-28T09:30:19.851Z,99633.97
2023-03-28T09:35:43.042Z,99643.59
2023-03-28T09:41:13.220Z,99635.53
2023-03-28T09:46:52.022Z,99639.81
2023-03-28T09:52:32.805Z,99643.47
2023-03-28T09:58:08.736Z,99666.44
2023-03-28T10:03:57.704Z,99663.81
2023-03-28T10:09:54.682Z,99670.41
2023-03-28T10:15:42.392Z,99669.91
2023-03-28T10:21:26.952Z,99676.72
2023-03-28T10:27:24.616Z,99688.97
2023-03-28T10:33:16.769Z,99687.94
2023-03-28T10:39:23.978Z,99693.88
2023-03-28T10:45:40.128Z,99701.94
2023-03-28T10:51:11.082Z,99699.00
2023-03-28T10:56:51.189Z,99702.47
2023-03-28T11:02:43.971Z,99708.28
2023-03-28T11:09:02.593Z,99692.25
2023-03-28T11:14:56.227Z,99707.63
2023-03-28T11:20:38.276Z,99706.63
2023-03-28T11:26:13.743Z,99709.94
2023-03-28T11:32:27.913Z,99694.69
2023-03-28T11:38:12.400Z,99709.88
2023-03-28T11:44:01.540Z,99717.34
2023-03-28T11:49:24.129Z,99707.19
2023-03-28T11:54:57.023Z,99680.19
2023-03-28T12:00:42.630Z,99703.91
2023-03-28T12:06:23.225Z,99711.38
2023-03-28T12:11:57.064Z,99686.22
2023-03-28T12:17:26.413Z,99701.72
2023-03-28T12:22:56.559Z,99699.03
2023-03-28T12:28:48.942Z,99695.84
2023-03-28T12:34:25.485Z,99701.66
2023-03-28T12:40:14.096Z,99705.34
2023-03-28T12:45:44.938Z,99693.75
2023-03-28T12:51:22.696Z,99695.84
2023-03-28T12:56:48.782Z,99658.59
2023-03-28T13:02:19.212Z,99690.00
2023-03-28T13:08:07.160Z,99671.41
2023-03-28T13:14:06.385Z,99693.75
2023-03-28T13:20:07.916Z,99700.59
2023-03-28T13:25:34.822Z,99693.75
2023-03-28T13:31:26.279Z,99702.38
2023-03-28T13:36:56.295Z,99681.03
2023-03-28T13:42:33.444Z,99684.72
2023-03-28T13:48:10.038Z,99698.44
2023-03-28T13:53:47.087Z,99700.84
2023-03-28T13:59:17.177Z,99695.97
2023-03-28T14:04:39.595Z,99682.06
2023-03-28T14:10:24.382Z,99694.63
2023-03-28T14:15:47.258Z,99674.59
2023-03-28T14:21:10.601Z,99677.50
2023-03-28T14:26:36.047Z,99676.72
2023-03-28T14:31:58.238Z,99672.75
2023-03-28T14:37:23.170Z,99686.41
2023-03-28T14:42:49.739Z,99675.75
2023-03-28T14:48:19.761Z,99679.53
2023-03-28T14:53:45.023Z,99700.16
2023-03-28T14:59:10.117Z,99684.66
2023-03-28T15:04:35.565Z,99689.19
2023-03-28T15:10:19.771Z,99707.44
2023-03-28T15:15:47.962Z,99685.75
2023-03-28T15:21:11.342Z,99708.44
2023-03-28T15:26:42.543Z,99700.94
2023-03-28T15:32:18.271Z,99713.72
2023-03-28T15:37:45.216Z,99708.28
2023-03-28T15:43:07.834Z,99722.72
2023-03-28T15:48:35.161Z,99724.75
2023-03-28T15:53:59.782Z,99724.13
2023-03-28T15:59:31.627Z,99738.31
2023-03-28T16:05:06.936Z,99754.84
2023-03-28T16:10:32.455Z,99737.84
2023-03-28T16:16:27.107Z,99726.78
2023-03-28T16:22:14.549Z,99748.78
2023-03-28T16:27:39.020Z,99773.63
2023-03-28T16:33:01.925Z,99757.03
2023-03-28T16:38:24.903Z,99776.81
2023-03-28T16:43:47.029Z,99768.22
2023-03-28T16:49:09.139Z,99756.72
2023-03-28T16:54:31.187Z,99771.44
2023-03-28T16:59:53.300Z,99752.44
2023-03-28T17:05:18.818Z,99762.13
2023-03-28T17:10:43.451Z,99778.91
2023-03-28T17:16:06.674Z,99774.63
2023-03-28T17:21:29.811Z,99763.91
2023-03-28T17:26:51.862Z,99780.97
2023-03-28T17:32:14.514Z,99775.88
2023-03-28T17:37:39.139Z,99773.19
2023-03-28T17:43:01.412Z,99762.47
2023-03-28T17:48:27.421Z,99795.72
2023-03-28T17:54:01.384Z,99791.16
2023-03-28T17:59:24.038Z,99801.34
2023-03-28T18:04:46.784Z,99784.97
2023-03-28T18:10:16.021Z,99791.09
2023-03-28T18:15:41.457Z,99766.34
2023-03-28T18:21:04.832Z,99792.03
2023-03-28T18:26:31.502Z,99783.88
2023-03-28T18:31:54.282Z,99806.63
2023-03-28T18:37:17.143Z,99783.75
2023-03-28T18:42:39.508Z,99792.72
2023-03-28T18:48:02.438Z,99829.34
2023-03-28T18:53:26.522Z,99827.22
2023-03-28T18:58:50.964Z,99782.41
2023-03-28T19:04:13.356Z,99783.69
2023-03-28T19:09:35.984Z,99812.88
2023-03-28T19:14:57.890Z,99819.78
2023-03-28T19:20:20.070Z,99800.94
2023-03-28T19:25:42.682Z,99798.19
2023-03-28T19:31:07.434Z,99810.53
2023-03-28T19:36:29.570Z,99797.69
2023-03-28T19:41:51.709Z,99795.59
2023-03-28T19:52:51.744Z,99819.09
2023-03-28T19:58:14.243Z,99793.63
2023-03-28T20:03:36.378Z,99813.56
2023-03-28T20:08:58.405Z,99807.94
2023-03-28T20:14:46.794Z,99829.38
2023-03-28T20:20:09.989Z,99828.06
2023-03-28T20:25:33.973Z,99819.91
2023-03-28T20:30:56.300Z,99825.22
2023-03-28T20:36:18.145Z,99821.38
2023-03-28T20:41:41.042Z,99824.81
2023-03-28T20:47:08.193Z,99831.44
2023-03-28T20:52:30.987Z,99830.00
2023-03-28T20:57:52.931Z,99841.69
2023-03-28T21:03:16.394Z,99841.66
2023-03-28T21:08:38.109Z,99838.41
2023-03-28T21:14:01.496Z,99847.22
2023-03-28T21:19:26.709Z,99827.25
2023-03-28T21:24:49.219Z,99836.88
2023-03-28T21:30:12.283Z,99845.09
2023-03-28T21:35:36.016Z,99838.34
2023-03-28T21:40:57.949Z,99841.22
2023-03-28T21:46:21.400Z,99870.44
2023-03-28T21:51:43.540Z,99858.16
2023-03-28T21:57:05.819Z,99851.38
2023-03-28T22:02:27.696Z,99849.78
2023-03-28T22:07:57.487Z,99845.25
2023-03-28T22:13:28.305Z,99842.03
2023-03-28T22:18:51.479Z,99837.75
2023-03-28T22:24:13.593Z,99842.69
2023-03-28T22:29:36.110Z,99842.88
2023-03-28T22:35:55.830Z,99856.22
2023-03-28T22:41:17.975Z,99849.00
2023-03-28T22:46:41.538Z,99854.81
2023-03-28T22:52:03.758Z,99836.25
2023-03-28T22:57:25.482Z,99847.84
2023-03-28T23:02:47.896Z,99845.44
2023-03-28T23:08:12.680Z,99842.28
2023-03-28T23:13:34.864Z,99823.50
2023-03-28T23:18:57.949Z,99813.44
2023-03-28T23:24:24.197Z,99817.97
2023-03-28T23:29:53.342Z,99826.75
2023-03-28T23:35:16.740Z,99823.72
2023-03-28T23:40:41.413Z,99815.63
2023-03-28T23:46:06.083Z,99821.38
2023-03-28T23:51:29.816Z,99826.75
2023-03-28T23:56:52.234Z,99805.63
